Time;durP1;ratioP1;P1;durP2;ratioP2;P2;SDS_P1;SDS_P2;PMS_P1;PMS_P2;Temp;Humidity;BMP_temperature;BMP_pressure;BME280_temperature;BME280_humidity;BME280_pressure;Samples;Min_cycle;Max_cycle;Signal;HPM_P1;HPM_P2
2023/05/04 00:01:11;;;;;;;;;;;;;;;;;;5055460;28;20003;-76
2023/05/04 00:03:37;;;;;;;;;;;;;;;;;;5053906;28;20288;-78
2023/05/04 00:06:02;;;;;;;;;;;;;;;;;;5055388;28;19916;-77
2023/05/04 00:08:27;;;;;;;;;;;;;;;;;;5054116;28;19921;-77
2023/05/04 00:10:54;;;;;;;;;;;;;;;;;;5055423;28;19913;-76
2023/05/04 00:13:20;;;;;;;;;;;;;;;;;;5055620;28;19916;-77
2023/05/04 00:15:45;;;;;;;;;;;;;;;;;;5037758;28;19919;-76
2023/05/04 00:18:10;;;;;;;;;;;;;;;;;;5054693;28;19913;-79
2023/05/04 00:20:36;;;;;;;;;;;;;;;;;;5037774;28;19931;-78
2023/05/04 00:23:01;;;;;;;;;;;;;;;;;;5055584;28;20375;-77
2023/05/04 00:25:27;;;;;;;;;;;;;;;;;;5055186;28;19920;-76
2023/05/04 00:27:52;;;;;;;;;;;;;;;;;;5054946;28;19920;-77
2023/05/04 00:30:18;;;;;;;;;;;;;;;;;;5053450;28;19917;-77
2023/05/04 00:32:43;;;;;;;;;;;;;;;;;;5053777;28;19913;-78
2023/05/04 00:35:09;;;;;;;;;;;;;;;;;;5053705;28;19924;-78
2023/05/04 00:37:35;;;;;;;;;;;;;;;;;;5053249;28;19936;-77
2023/05/04 00:40:00;;;;;;;;;;;;;;;;;;5054982;28;19962;-76
2023/05/04 00:42:26;;;;;;;;;;;;;;;;;;5056153;28;19967;-77
2023/05/04 00:44:51;;;;;;;;;;;;;;;;;;5058338;28;20005;-77
2023/05/04 00:47:18;;;;;;;;;;;;;;;;;;5058359;28;19920;-78
2023/05/04 00:49:43;;;;;;;;;;;;;;;;;;5057684;28;19912;-77
2023/05/04 00:52:09;;;;;;;;;;;;;;;;;;5055430;28;19966;-78
2023/05/04 00:54:34;;;;;;;;;;;;;;;;;;5054346;28;19978;-79
2023/05/04 00:57:00;;;;;;;;;;;;;;;;;;5054182;28;19913;-78
2023/05/04 00:59:26;;;;;;;;;;;;;;;;;;5037434;28;20287;-77
2023/05/04 01:01:51;;;;;;;;;;;;;;;;;;5053539;28;19920;-77
2023/05/04 01:04:17;;;;;;;;;;;;;;;;;;5041416;22;20439;-77
2023/05/04 01:06:43;;;;;;;;;;;;;;;;;;4997678;28;19918;-77
2023/05/04 01:09:09;;;;;;;;;;;;;;;;;;4998706;28;20025;-75
2023/05/04 01:11:35;;;;;;;;;;;;;;;;;;5015036;28;19921;-76
2023/05/04 01:14:00;;;;;;;;;;;;;;;;;;4998461;28;19909;-76
2023/05/04 01:16:29;;;;;;;;;;;;;;;;;;5013913;28;19917;-75
2023/05/04 01:18:55;;;;;;;;;;;;;;;;;;4997750;28;20365;-76
2023/05/04 01:21:20;;;;;;;;;;;;;;;;;;5014515;28;19913;-75
2023/05/04 01:23:46;;;;;;;;;;;;;;;;;;5015322;28;19956;-76
2023/05/04 01:26:12;;;;;;;;;;;;;;;;;;5016134;28;19913;-76
2023/05/04 01:28:37;;;;;;;;;;;;;;;;;;5014959;28;19948;-76
2023/05/04 01:31:03;;;;;;;;;;;;;;;;;;5004348;28;20463;-76
2023/05/04 01:33:28;;;;;;;;;;;;;;;;;;4996029;28;20277;-77
2023/05/04 01:35:53;;;;;;;;;;;;;;;;;;5030024;28;19926;-76
2023/05/04 01:38:19;;;;;;;;;;;;;;;;;;5008406;28;20389;-76
2023/05/04 01:40:44;;;;;;;;;;;;;;;;;;5015620;28;20343;-77
2023/05/04 01:43:11;;;;;;;;;;;;;;;;;;5015470;28;20377;-77
2023/05/04 01:45:37;;;;;;;;;;;;;;;;;;5016627;28;20016;-77
2023/05/04 01:48:03;;;;;;;;;;;;;;;;;;4981494;28;19957;-76
2023/05/04 01:50:28;;;;;;;;;;;;;;;;;;5001661;28;19921;-77
2023/05/04 01:52:54;;;;;;;;;;;;;;;;;;4997067;28;19922;-78
2023/05/04 01:55:19;;;;;;;;;;;;;;;;;;4994175;28;19914;-75
2023/05/04 01:57:45;;;;;;;;;;;;;;;;;;5013372;28;19953;-77
2023/05/04 02:00:10;;;;;;;;;;;;;;;;;;5003015;28;19968;-77
2023/05/04 02:02:43;;;;;;;;;;;;;;;;;;5018110;28;19924;-76
2023/05/04 02:05:09;;;;;;;;;;;;;;;;;;5008949;28;19961;-76
2023/05/04 02:07:34;;;;;;;;;;;;;;;;;;5012903;28;20303;-76
2023/05/04 02:10:02;;;;;;;;;;;;;;;;;;5013749;28;19921;-77
2023/05/04 02:12:28;;;;;;;;;;;;;;;;;;4997513;28;20296;-76
2023/05/04 02:14:53;;;;;;;;;;;;;;;;;;5005027;28;19914;-75
2023/05/04 02:17:19;;;;;;;;;;;;;;;;;;5003774;28;19937;-76
2023/05/04 02:19:44;;;;;;;;;;;;;;;;;;5011380;28;19921;-77
2023/05/04 02:22:09;;;;;;;;;;;;;;;;;;5012602;28;20011;-77
2023/05/04 02:24:35;;;;;;;;;;;;;;;;;;4996436;28;20265;-77
2023/05/04 02:27:00;;;;;;;;;;;;;;;;;;5012365;28;20067;-78
2023/05/04 02:29:26;;;;;;;;;;;;;;;;;;5004635;28;19914;-76
2023/05/04 02:31:52;;;;;;;;;;;;;;;;;;5011180;28;19921;-76
2023/05/04 02:34:17;;;;;;;;;;;;;;;;;;5012420;28;19913;-77
2023/05/04 02:36:45;;;;;;;;;;;;;;;;;;5012456;28;19920;-77
2023/05/04 02:39:11;;;;;;;;;;;;;;;;;;5005613;28;19917;-77
2023/05/04 02:41:37;;;;;;;;;;;;;;;;;;5012653;28;19914;-77
2023/05/04 02:44:02;;;;;;;;;;;;;;;;;;5014984;28;20435;-77
2023/05/04 02:46:30;;;;;;;;;;;;;;;;;;4996778;28;19917;-77
2023/05/04 02:48:56;;;;;;;;;;;;;;;;;;5012711;28;19913;-78
2023/05/04 02:51:21;;;;;;;;;;;;;;;;;;4996983;28;19918;-78
2023/05/04 02:53:47;;;;;;;;;;;;;;;;;;5013231;28;19920;-76
2023/05/04 02:56:12;;;;;;;;;;;;;;;;;;5001193;28;19949;-76
2023/05/04 02:58:38;;;;;;;;;;;;;;;;;;5024125;28;19913;-78
2023/05/04 03:01:03;;;;;;;;;;;;;;;;;;5006959;28;19920;-77
2023/05/04 03:03:29;;;;;;;;;;;;;;;;;;5013908;28;19918;-76
2023/05/04 03:05:54;;;;;;;;;;;;;;;;;;5014896;28;20008;-77
2023/05/04 03:08:20;;;;;;;;;;;;;;;;;;5004410;28;19969;-76
2023/05/04 03:10:45;;;;;;;;;;;;;;;;;;5027291;28;19914;-76
2023/05/04 03:13:11;;;;;;;;;;;;;;;;;;5014041;28;19913;-77
2023/05/04 03:15:36;;;;;;;;;;;;;;;;;;5013792;28;19913;-76
2023/05/04 03:18:02;;;;;;;;;;;;;;;;;;4996907;28;20300;-76
2023/05/04 03:20:28;;;;;;;;;;;;;;;;;;4981276;28;19921;-76
2023/05/04 03:22:58;;;;;;;;;;;;;;;;;;5009680;28;19914;-75
2023/05/04 03:25:24;;;;;;;;;;;;;;;;;;5008325;28;19953;-78
2023/05/04 03:27:50;;;;;;;;;;;;;;;;;;5012545;28;19920;-77
2023/05/04 03:30:15;;;;;;;;;;;;;;;;;;5012313;28;19972;-76
2023/05/04 03:32:43;;;;;;;;;;;;;;;;;;5013590;28;19917;-77
2023/05/04 03:35:08;;;;;;;;;;;;;;;;;;5013201;28;19925;-76
2023/05/04 03:37:34;;;;;;;;;;;;;;;;;;5006224;28;20044;-77
2023/05/04 03:40:00;;;;;;;;;;;;;;;;;;4996288;28;20288;-77
2023/05/04 03:42:25;;;;;;;;;;;;;;;;;;4980619;28;20301;-78
2023/05/04 03:44:51;;;;;;;;;;;;;;;;;;5000510;28;19918;-76
2023/05/04 03:47:16;;;;;;;;;;;;;;;;;;5008238;28;19913;-76
2023/05/04 03:49:42;;;;;;;;;;;;;;;;;;5012087;28;20007;-76
2023/05/04 03:52:07;;;;;;;;;;;;;;;;;;5012153;28;19914;-76
2023/05/04 03:54:33;;;;;;;;;;;;;;;;;;4996979;28;19922;-77
2023/05/04 03:56:58;;;;;;;;;;;;;;;;;;5017183;28;19913;-77
2023/05/04 03:59:24;;;;;;;;;;;;;;;;;;4991497;28;19972;-78
2023/05/04 04:01:50;;;;;;;;;;;;;;;;;;5013183;28;19921;-76
2023/05/04 04:04:15;;;;;;;;;;;;;;;;;;5031606;28;20419;-76
2023/05/04 04:06:41;;;;;;;;;;;;;;;;;;5030528;28;19997;-77
2023/05/04 04:09:06;;;;;;;;;;;;;;;;;;4997838;28;19992;-76
2023/05/04 04:11:31;;;;;;;;;;;;;;;;;;5029733;28;19913;-78
2023/05/04 04:13:57;;;;;;;;;;;;;;;;;;5029900;28;19957;-76
2023/05/04 04:16:22;;;;;;;;;;;;;;;;;;4997252;28;20035;-77
2023/05/04 04:18:48;;;;;;;;;;;;;;;;;;5029945;28;19921;-76
2023/05/04 04:21:13;;;;;;;;;;;;;;;;;;5032522;28;19913;-78
2023/05/04 04:23:39;;;;;;;;;;;;;;;;;;5015198;28;19913;-78
2023/05/04 04:26:05;;;;;;;;;;;;;;;;;;5018173;28;19920;-77
2023/05/04 04:28:31;;;;;;;;;;;;;;;;;;5003048;28;19913;-77
2023/05/04 04:30:56;;;;;;;;;;;;;;;;;;5019146;28;19913;-78
2023/05/04 04:33:21;;;;;;;;;;;;;;;;;;5036019;28;19917;-77
2023/05/04 04:35:47;;;;;;;;;;;;;;;;;;5020320;28;19920;-78
2023/05/04 04:38:12;;;;;;;;;;;;;;;;;;5003864;28;20016;-77
2023/05/04 04:40:38;;;;;;;;;;;;;;;;;;5036209;28;19917;-78
2023/05/04 04:43:10;;;;;;;;;;;;;;;;;;5019838;28;20348;-77
2023/05/04 04:45:35;;;;;;;;;;;;;;;;;;5019855;28;19913;-76
2023/05/04 04:48:01;;;;;;;;;;;;;;;;;;5035946;28;20300;-77
2023/05/04 04:50:28;;;;;;;;;;;;;;;;;;5036133;28;19920;-77
2023/05/04 04:52:56;;;;;;;;;;;;;;;;;;5019027;28;20006;-76
2023/05/04 04:55:24;;;;;;;;;;;;;;;;;;5037466;28;19913;-77
2023/05/04 04:57:49;;;;;;;;;;;;;;;;;;5002640;28;19935;-76
2023/05/04 05:00:15;;;;;;;;;;;;;;;;;;5035114;28;20014;-78
2023/05/04 05:02:42;;;;;;;;;;;;;;;;;;5020621;28;19913;-77
2023/05/04 05:05:07;;;;;;;;;;;;;;;;;;5003468;28;19950;-77
2023/05/04 05:07:33;;;;;;;;;;;;;;;;;;5019359;28;20386;-76
2023/05/04 05:09:59;;;;;;;;;;;;;;;;;;5019001;28;19913;-77
2023/05/04 05:12:25;;;;;;;;;;;;;;;;;;5035683;28;19913;-77
2023/05/04 05:14:51;;;;;;;;;;;;;;;;;;5035505;28;19925;-75
2023/05/04 05:17:16;;;;;;;;;;;;;;;;;;5019909;28;19917;-77
2023/05/04 05:19:41;;;;;;;;;;;;;;;;;;5034872;28;20291;-76
2023/05/04 05:22:08;;;;;;;;;;;;;;;;;;5020046;28;19920;-77
2023/05/04 05:24:33;;;;;;;;;;;;;;;;;;5036471;28;20019;-78
2023/05/04 05:26:59;;;;;;;;;;;;;;;;;;5005404;28;20280;-77
2023/05/04 05:29:25;;;;;;;;;;;;;;;;;;5038152;28;19913;-78
2023/05/04 05:31:52;;;;;;;;;;;;;;;;;;5022274;28;19939;-76
2023/05/04 05:34:20;;;;;;;;;;;;;;;;;;5037815;28;19913;-77
2023/05/04 05:36:48;;;;;;;;;;;;;;;;;;5038893;28;20170;-78
2023/05/04 05:39:14;;;;;;;;;;;;;;;;;;5022163;28;19924;-77
2023/05/04 05:41:43;;;;;;;;;;;;;;;;;;5007970;28;19920;-77
2023/05/04 05:44:08;;;;;;;;;;;;;;;;;;5042648;28;19975;-77
2023/05/04 05:46:33;;;;;;;;;;;;;;;;;;5043382;28;19921;-77
2023/05/04 05:49:00;;;;;;;;;;;;;;;;;;5043825;28;19944;-76
2023/05/04 05:51:25;;;;;;;;;;;;;;;;;;5042309;28;19935;-77
2023/05/04 05:53:50;;;;;;;;;;;;;;;;;;5043270;28;19917;-77
2023/05/04 05:56:16;;;;;;;;;;;;;;;;;;5042400;28;19913;-76
2023/05/04 05:58:42;;;;;;;;;;;;;;;;;;5042165;28;19913;-76
2023/05/04 06:01:08;;;;;;;;;;;;;;;;;;5040592;28;19955;-76
2023/05/04 06:03:33;;;;;;;;;;;;;;;;;;5041120;28;19979;-77
2023/05/04 06:05:59;;;;;;;;;;;;;;;;;;5040212;28;19913;-75
2023/05/04 06:08:24;;;;;;;;;;;;;;;;;;5022897;28;19913;-77
2023/05/04 06:10:50;;;;;;;;;;;;;;;;;;5037682;28;19920;-75
2023/05/04 06:13:16;;;;;;;;;;;;;;;;;;5019405;28;20007;-76
2023/05/04 06:15:42;;;;;;;;;;;;;;;;;;5034897;28;19917;-77
2023/05/04 06:18:07;;;;;;;;;;;;;;;;;;5001875;28;19920;-78
2023/05/04 06:20:33;;;;;;;;;;;;;;;;;;5018370;28;19921;-76
2023/05/04 06:22:58;;;;;;;;;;;;;;;;;;5002184;28;19913;-76
2023/05/04 06:25:24;;;;;;;;;;;;;;;;;;5017984;28;19913;-78
2023/05/04 06:27:50;;;;;;;;;;;;;;;;;;5018272;28;19923;-77
2023/05/04 06:30:15;;;;;;;;;;;;;;;;;;5034584;28;19913;-77
2023/05/04 06:32:41;;;;;;;;;;;;;;;;;;5018142;28;20124;-76
2023/05/04 06:35:07;;;;;;;;;;;;;;;;;;5001334;28;20036;-78
2023/05/04 06:37:33;;;;;;;;;;;;;;;;;;5017821;28;19917;-76
2023/05/04 06:39:58;;;;;;;;;;;;;;;;;;5034574;28;20443;-75
2023/05/04 06:42:24;;;;;;;;;;;;;;;;;;5018424;28;19920;-75
2023/05/04 06:44:52;;;;;;;;;;;;;;;;;;5019834;28;19967;-76
2023/05/04 06:47:17;;;;;;;;;;;;;;;;;;5033862;28;19917;-77
2023/05/04 06:49:43;;;;;;;;;;;;;;;;;;5033511;28;19918;-78
2023/05/04 06:52:08;;;;;;;;;;;;;;;;;;5037232;28;19924;-77
2023/05/04 06:54:34;;;;;;;;;;;;;;;;;;5018912;28;19936;-78
2023/05/04 06:57:00;;;;;;;;;;;;;;;;;;5017296;28;19975;-77
2023/05/04 06:59:26;;;;;;;;;;;;;;;;;;5032894;28;20296;-77
2023/05/04 07:01:51;;;;;;;;;;;;;;;;;;5017775;28;19920;-77
2023/05/04 07:04:22;;;;;;;;;;;;;;;;;;5032358;22;19926;-78
2023/05/04 07:06:47;;;;;;;;;;;;;;;;;;5005448;28;19960;-77
2023/05/04 07:09:12;;;;;;;;;;;;;;;;;;5003448;28;19921;-77
2023/05/04 07:11:38;;;;;;;;;;;;;;;;;;5001001;28;19914;-77
2023/05/04 07:14:03;;;;;;;;;;;;;;;;;;4997674;28;19989;-78
2023/05/04 07:16:29;;;;;;;;;;;;;;;;;;4998372;28;19909;-79
2023/05/04 07:18:56;;;;;;;;;;;;;;;;;;4996057;28;19922;-76
2023/05/04 07:21:21;;;;;;;;;;;;;;;;;;4993482;28;19918;-80
2023/05/04 07:23:47;;;;;;;;;;;;;;;;;;4993771;28;20497;-77
2023/05/04 07:26:12;;;;;;;;;;;;;;;;;;4994135;28;20016;-78
2023/05/04 07:28:37;;;;;;;;;;;;;;;;;;4994460;28;19960;-77
2023/05/04 07:31:03;;;;;;;;;;;;;;;;;;4992349;28;19914;-79
2023/05/04 07:33:28;;;;;;;;;;;;;;;;;;4993561;28;19914;-79
2023/05/04 07:35:53;;;;;;;;;;;;;;;;;;4993378;28;20293;-77
2023/05/04 07:38:19;;;;;;;;;;;;;;;;;;4992795;28;19921;-76
2023/05/04 07:40:44;;;;;;;;;;;;;;;;;;4991054;28;19960;-77
2023/05/04 07:43:10;;;;;;;;;;;;;;;;;;4992799;28;19921;-78
2023/05/04 07:45:35;;;;;;;;;;;;;;;;;;4993648;28;20504;-80
2023/05/04 07:48:01;;;;;;;;;;;;;;;;;;4993594;28;19914;-78
2023/05/04 07:50:27;;;;;;;;;;;;;;;;;;4994135;28;19941;-78
2023/05/04 07:52:53;;;;;;;;;;;;;;;;;;4993662;28;19914;-79
2023/05/04 07:55:18;;;;;;;;;;;;;;;;;;4994394;28;20406;-79
2023/05/04 07:57:44;;;;;;;;;;;;;;;;;;4975883;28;20336;-78
2023/05/04 08:00:09;;;;;;;;;;;;;;;;;;4994108;28;20300;-77
2023/05/04 08:02:40;;;;;;;;;;;;;;;;;;4996687;28;19957;-76
2023/05/04 08:05:06;;;;;;;;;;;;;;;;;;4996515;28;19964;-77
2023/05/04 08:07:31;;;;;;;;;;;;;;;;;;4995291;28;19913;-79
2023/05/04 08:09:57;;;;;;;;;;;;;;;;;;4996406;28;19951;-78
2023/05/04 08:12:23;;;;;;;;;;;;;;;;;;4995535;28;19920;-77
2023/05/04 08:14:48;;;;;;;;;;;;;;;;;;4995362;28;19914;-78
2023/05/04 08:17:13;;;;;;;;;;;;;;;;;;4995451;28;19920;-79
2023/05/04 08:19:39;;;;;;;;;;;;;;;;;;4994958;28;20098;-78
2023/05/04 08:22:04;;;;;;;;;;;;;;;;;;4996470;28;20324;-77
2023/05/04 08:24:30;;;;;;;;;;;;;;;;;;4996239;28;20296;-78
2023/05/04 08:26:55;;;;;;;;;;;;;;;;;;4996195;28;19914;-78
2023/05/04 08:29:21;;;;;;;;;;;;;;;;;;4996603;28;20002;-87
2023/05/04 08:31:46;;;;;;;;;;;;;;;;;;4980549;28;20293;-86
2023/05/04 08:34:12;;;;;;;;;;;;;;;;;;4979702;28;19995;-85
2023/05/04 08:36:37;;;;;;;;;;;;;;;;;;4995086;28;19914;-85
2023/05/04 08:39:03;;;;;;;;;;;;;;;;;;4994713;28;19984;-85
2023/05/04 08:41:31;;;;;;;;;;;;;;;;;;4978687;28;19914;-86
2023/05/04 08:43:56;;;;;;;;;;;;;;;;;;4978929;28;19918;-85
2023/05/04 08:46:22;;;;;;;;;;;;;;;;;;4997415;28;20277;-84
2023/05/04 08:48:48;;;;;;;;;;;;;;;;;;4978908;28;19913;-83
2023/05/04 08:51:13;;;;;;;;;;;;;;;;;;4995372;28;19932;-83
2023/05/04 08:53:40;;;;;;;;;;;;;;;;;;4979044;28;19929;-84
2023/05/04 08:56:05;;;;;;;;;;;;;;;;;;4994281;28;20366;-85
2023/05/04 08:58:30;;;;;;;;;;;;;;;;;;4994691;28;19921;-84
2023/05/04 09:00:56;;;;;;;;;;;;;;;;;;4993996;28;19922;-85
2023/05/04 09:03:21;;;;;;;;;;;;;;;;;;4995626;28;19921;-85
2023/05/04 09:05:49;;;;;;;;;;;;;;;;;;4962453;28;19918;-84
2023/05/04 09:08:15;;;;;;;;;;;;;;;;;;4995042;28;19946;-84
2023/05/04 09:10:40;;;;;;;;;;;;;;;;;;4977554;28;20072;-83
2023/05/04 09:13:06;;;;;;;;;;;;;;;;;;4978707;28;19914;-84
2023/05/04 09:15:31;;;;;;;;;;;;;;;;;;4995285;28;19918;-86
2023/05/04 09:18:00;;;;;;;;;;;;;;;;;;4978322;28;19914;-86
2023/05/04 09:20:26;;;;;;;;;;;;;;;;;;4961373;28;19984;-85
2023/05/04 09:22:51;;;;;;;;;;;;;;;;;;4980486;28;19920;-86
2023/05/04 09:25:17;;;;;;;;;;;;;;;;;;4977667;28;19917;-86
2023/05/04 09:27:42;;;;;;;;;;;;;;;;;;4995013;28;19914;-86
2023/05/04 09:30:08;;;;;;;;;;;;;;;;;;4977648;28;20369;-85
2023/05/04 09:32:33;;;;;;;;;;;;;;;;;;4993524;28;19918;-85
2023/05/04 09:34:58;;;;;;;;;;;;;;;;;;4994693;28;19968;-85
2023/05/04 09:37:24;;;;;;;;;;;;;;;;;;4993248;28;20412;-86
2023/05/04 09:39:50;;;;;;;;;;;;;;;;;;4994357;28;20060;-85
2023/05/04 09:42:17;;;;;;;;;;;;;;;;;;4994703;28;19921;-85
2023/05/04 09:44:42;;;;;;;;;;;;;;;;;;4994251;28;19921;-86
2023/05/04 09:47:08;;;;;;;;;;;;;;;;;;4978647;28;19914;-85
2023/05/04 09:49:33;;;;;;;;;;;;;;;;;;4995032;28;19917;-86
2023/05/04 09:52:02;;;;;;;;;;;;;;;;;;4961597;28;19973;-87
2023/05/04 09:54:28;;;;;;;;;;;;;;;;;;4995563;28;19946;-86
2023/05/04 09:56:54;;;;;;;;;;;;;;;;;;4982725;28;19964;-86
2023/05/04 09:59:22;;;;;;;;;;;;;;;;;;4975543;28;19972;-85
2023/05/04 10:01:47;;;;;;;;;;;;;;;;;;4987840;28;20348;-84
2023/05/04 10:04:13;;;;;;;;;;;;;;;;;;4993550;28;20301;-86
2023/05/04 10:06:38;;;;;;;;;;;;;;;;;;4983474;28;20308;-83
2023/05/04 10:09:07;;;;;;;;;;;;;;;;;;5005941;28;19914;-84
2023/05/04 10:11:32;;;;;;;;;;;;;;;;;;4991060;28;19914;-82
2023/05/04 10:13:58;;;;;;;;;;;;;;;;;;5004903;28;19921;-82
2023/05/04 10:16:23;;;;;;;;;;;;;;;;;;5004732;28;19918;-82
2023/05/04 10:18:49;;;;;;;;;;;;;;;;;;5001825;28;19968;-83
2023/05/04 10:21:15;;;;;;;;;;;;;;;;;;4974821;28;19914;-81
2023/05/04 10:23:41;;;;;;;;;;;;;;;;;;4984011;28;19985;-82
2023/05/04 10:26:06;;;;;;;;;;;;;;;;;;4992697;28;19913;-82
2023/05/04 10:28:35;;;;;;;;;;;;;;;;;;4993773;28;20359;-83
2023/05/04 10:31:01;;;;;;;;;;;;;;;;;;4975701;28;19937;-81
2023/05/04 10:33:26;;;;;;;;;;;;;;;;;;4992300;28;19913;-81
2023/05/04 10:35:52;;;;;;;;;;;;;;;;;;4993282;28;19925;-80
2023/05/04 10:38:17;;;;;;;;;;;;;;;;;;4993980;28;20337;-82
2023/05/04 10:40:47;;;;;;;;;;;;;;;;;;4993477;28;20270;-80
2023/05/04 10:43:13;;;;;;;;;;;;;;;;;;4993374;28;20447;-80
2023/05/04 10:45:38;;;;;;;;;;;;;;;;;;4991752;28;19917;-81
2023/05/04 10:48:04;;;;;;;;;;;;;;;;;;4990490;28;19961;-81
2023/05/04 10:50:30;;;;;;;;;;;;;;;;;;4993165;28;19968;-79
2023/05/04 10:52:58;;;;;;;;;;;;;;;;;;4991568;28;19914;-80
2023/05/04 10:55:24;;;;;;;;;;;;;;;;;;4993058;28;19914;-81
2023/05/04 10:57:50;;;;;;;;;;;;;;;;;;4992915;28;19920;-78
2023/05/04 11:00:16;;;;;;;;;;;;;;;;;;4986698;28;20016;-80
2023/05/04 11:02:41;;;;;;;;;;;;;;;;;;4992074;28;20331;-81
2023/05/04 11:05:06;;;;;;;;;;;;;;;;;;4975257;28;20350;-81
2023/05/04 11:07:36;;;;;;;;;;;;;;;;;;4992978;28;20309;-82
2023/05/04 11:10:02;;;;;;;;;;;;;;;;;;4991609;28;19924;-80
2023/05/04 11:12:31;;;;;;;;;;;;;;;;;;4992724;28;20513;-81
2023/05/04 11:14:56;;;;;;;;;;;;;;;;;;4991688;28;19918;-79
2023/05/04 11:17:22;;;;;;;;;;;;;;;;;;4992755;28;19921;-81
2023/05/04 11:19:50;;;;;;;;;;;;;;;;;;4992339;28;19917;-80
2023/05/04 11:22:15;;;;;;;;;;;;;;;;;;4992612;28;20400;-79
2023/05/04 11:24:44;;;;;;;;;;;;;;;;;;4992738;28;19945;-80
2023/05/04 11:27:09;;;;;;;;;;;;;;;;;;4992613;28;19921;-80
2023/05/04 11:29:34;;;;;;;;;;;;;;;;;;4992805;28;20005;-80
2023/05/04 11:32:00;;;;;;;;;;;;;;;;;;4991596;28;20021;-80
2023/05/04 11:34:26;;;;;;;;;;;;;;;;;;4993676;28;19914;-80
2023/05/04 11:36:53;;;;;;;;;;;;;;;;;;4993189;28;19913;-81
2023/05/04 11:39:19;;;;;;;;;;;;;;;;;;4995539;28;19993;-81
2023/05/04 11:41:45;;;;;;;;;;;;;;;;;;4997423;28;19914;-82
2023/05/04 11:44:10;;;;;;;;;;;;;;;;;;4995715;28;19914;-80
2023/05/04 11:46:39;;;;;;;;;;;;;;;;;;4996079;28;20399;-80
2023/05/04 11:49:07;;;;;;;;;;;;;;;;;;4997922;28;19914;-82
2023/05/04 11:51:32;;;;;;;;;;;;;;;;;;5006967;28;19913;-81
2023/05/04 11:53:59;;;;;;;;;;;;;;;;;;5001938;28;20270;-85
2023/05/04 11:56:27;;;;;;;;;;;;;;;;;;5000219;28;20013;-83
2023/05/04 11:58:52;;;;;;;;;;;;;;;;;;4999214;28;19957;-84
2023/05/04 12:01:18;;;;;;;;;;;;;;;;;;4997362;28;19913;-84
2023/05/04 12:03:43;;;;;;;;;;;;;;;;;;5006600;28;19934;-85
2023/05/04 12:06:09;;;;;;;;;;;;;;;;;;5000426;28;20257;-84
2023/05/04 12:08:34;;;;;;;;;;;;;;;;;;4984590;28;20009;-83
2023/05/04 12:11:00;;;;;;;;;;;;;;;;;;5010622;28;19937;-82
2023/05/04 12:13:28;;;;;;;;;;;;;;;;;;4994860;28;20285;-83
2023/05/04 12:15:53;;;;;;;;;;;;;;;;;;5000567;28;20287;-83
2023/05/04 12:18:19;;;;;;;;;;;;;;;;;;4998807;28;19973;-85
2023/05/04 12:20:44;;;;;;;;;;;;;;;;;;4998975;28;19965;-84
2023/05/04 12:23:09;;;;;;;;;;;;;;;;;;4997448;28;20008;-83
2023/05/04 12:25:35;;;;;;;;;;;;;;;;;;4997953;28;19914;-84
2023/05/04 12:28:00;;;;;;;;;;;;;;;;;;4996638;28;19914;-84
2023/05/04 12:30:26;;;;;;;;;;;;;;;;;;4994697;28;19914;-83
2023/05/04 12:32:51;;;;;;;;;;;;;;;;;;4996227;28;19922;-83
2023/05/04 12:35:16;;;;;;;;;;;;;;;;;;4978712;28;19925;-84
2023/05/04 12:37:42;;;;;;;;;;;;;;;;;;4992624;28;19921;-84
2023/05/04 12:40:08;;;;;;;;;;;;;;;;;;4994940;28;19918;-85
2023/05/04 12:42:33;;;;;;;;;;;;;;;;;;4996412;28;19961;-84
2023/05/04 12:44:59;;;;;;;;;;;;;;;;;;4996025;28;20423;-82
2023/05/04 12:47:25;;;;;;;;;;;;;;;;;;4994119;28;19914;-83
2023/05/04 12:49:50;;;;;;;;;;;;;;;;;;4994287;28;20443;-83
2023/05/04 12:52:15;;;;;;;;;;;;;;;;;;4978894;28;20277;-83
2023/05/04 12:54:41;;;;;;;;;;;;;;;;;;4996609;28;19926;-84
2023/05/04 12:57:06;;;;;;;;;;;;;;;;;;4996423;28;19949;-84
2023/05/04 12:59:32;;;;;;;;;;;;;;;;;;4994006;28;19971;-83
2023/05/04 13:01:57;;;;;;;;;;;;;;;;;;4995749;28;20392;-81
2023/05/04 13:04:23;;;;;;;;;;;;;;;;;;4995234;28;19968;-83
2023/05/04 13:06:48;;;;;;;;;;;;;;;;;;4997270;28;19914;-81
2023/05/04 13:09:13;;;;;;;;;;;;;;;;;;4999487;28;19914;-82
2023/05/04 13:11:39;;;;;;;;;;;;;;;;;;4999015;28;19914;-83
2023/05/04 13:14:06;;;;;;;;;;;;;;;;;;4981051;28;19914;-80
2023/05/04 13:16:31;;;;;;;;;;;;;;;;;;4999861;28;20412;-81
2023/05/04 13:18:56;;;;;;;;;;;;;;;;;;5000336;28;19918;-80
2023/05/04 13:21:22;;;;;;;;;;;;;;;;;;4998068;28;19950;-79
2023/05/04 13:23:47;;;;;;;;;;;;;;;;;;4985173;28;20001;-80
2023/05/04 13:26:13;;;;;;;;;;;;;;;;;;5007693;28;19960;-80
2023/05/04 13:28:38;;;;;;;;;;;;;;;;;;5004538;28;20012;-80
2023/05/04 13:31:04;;;;;;;;;;;;;;;;;;4998898;28;19946;-79
2023/05/04 13:33:29;;;;;;;;;;;;;;;;;;4999832;28;20013;-79
2023/05/04 13:35:56;;;;;;;;;;;;;;;;;;4996418;28;19921;-80
2023/05/04 13:38:22;;;;;;;;;;;;;;;;;;4974067;28;19914;-79
2023/05/04 13:40:47;;;;;;;;;;;;;;;;;;4994234;28;20289;-78
2023/05/04 13:43:12;;;;;;;;;;;;;;;;;;4974751;28;19913;-86
2023/05/04 13:45:41;;;;;;;;;;;;;;;;;;4984180;28;19913;-82
2023/05/04 13:48:06;;;;;;;;;;;;;;;;;;4993194;28;20310;-79
2023/05/04 13:50:32;;;;;;;;;;;;;;;;;;4974621;28;20238;-78
2023/05/04 13:52:57;;;;;;;;;;;;;;;;;;4993014;28;19914;-78
2023/05/04 13:55:23;;;;;;;;;;;;;;;;;;4992833;28;19914;-82
2023/05/04 13:57:48;;;;;;;;;;;;;;;;;;4993736;28;20004;-77
2023/05/04 14:00:14;;;;;;;;;;;;;;;;;;4992459;28;19941;-79
2023/05/04 14:02:39;;;;;;;;;;;;;;;;;;4992735;28;20296;-79
2023/05/04 14:05:07;;;;;;;;;;;;;;;;;;4976269;28;20468;-80
2023/05/04 14:07:32;;;;;;;;;;;;;;;;;;4994528;28;19937;-79
2023/05/04 14:09:57;;;;;;;;;;;;;;;;;;4994690;28;19973;-82
2023/05/04 14:12:23;;;;;;;;;;;;;;;;;;4992978;28;20361;-80
2023/05/04 14:14:49;;;;;;;;;;;;;;;;;;4993592;28;19920;-80
2023/05/04 14:17:14;;;;;;;;;;;;;;;;;;4993837;28;19918;-78
2023/05/04 14:19:40;;;;;;;;;;;;;;;;;;4992260;28;19973;-79
2023/05/04 14:22:05;;;;;;;;;;;;;;;;;;4992957;28;20370;-79
2023/05/04 14:24:31;;;;;;;;;;;;;;;;;;4991774;28;20288;-79
2023/05/04 14:26:56;;;;;;;;;;;;;;;;;;4993290;28;19918;-78
2023/05/04 14:29:22;;;;;;;;;;;;;;;;;;4993407;28;19917;-78
2023/05/04 14:31:47;;;;;;;;;;;;;;;;;;4993115;28;19973;-78
2023/05/04 14:34:12;;;;;;;;;;;;;;;;;;4976130;28;19921;-78
2023/05/04 14:36:38;;;;;;;;;;;;;;;;;;4988623;28;20353;-78
2023/05/04 14:39:04;;;;;;;;;;;;;;;;;;4978962;28;19920;-79
2023/05/04 14:41:34;;;;;;;;;;;;;;;;;;4992969;28;19937;-78
2023/05/04 14:44:00;;;;;;;;;;;;;;;;;;4991599;28;20297;-79
2023/05/04 14:46:25;;;;;;;;;;;;;;;;;;4993528;28;19916;-77
2023/05/04 14:48:51;;;;;;;;;;;;;;;;;;4991840;28;19918;-79
2023/05/04 14:51:16;;;;;;;;;;;;;;;;;;4992646;28;20017;-78
2023/05/04 14:53:45;;;;;;;;;;;;;;;;;;4993197;28;19914;-78
2023/05/04 14:56:10;;;;;;;;;;;;;;;;;;4993651;28;20013;-77
2023/05/04 14:58:36;;;;;;;;;;;;;;;;;;4993022;28;19956;-77
2023/05/04 15:01:01;;;;;;;;;;;;;;;;;;4991295;28;20393;-78
2023/05/04 15:03:27;;;;;;;;;;;;;;;;;;4992458;28;20428;-78
2023/05/04 15:05:52;;;;;;;;;;;;;;;;;;4992634;28;19921;-79
2023/05/04 15:08:18;;;;;;;;;;;;;;;;;;4990984;28;20234;-79
2023/05/04 15:10:43;;;;;;;;;;;;;;;;;;4990906;28;19914;-78
2023/05/04 15:13:11;;;;;;;;;;;;;;;;;;4992424;28;20004;-78
2023/05/04 15:15:36;;;;;;;;;;;;;;;;;;4992491;28;19914;-79
2023/05/04 15:18:01;;;;;;;;;;;;;;;;;;4991556;28;19920;-78
2023/05/04 15:20:27;;;;;;;;;;;;;;;;;;4990984;28;19925;-78
2023/05/04 15:22:52;;;;;;;;;;;;;;;;;;4992312;28;20419;-79
2023/05/04 15:25:18;;;;;;;;;;;;;;;;;;4991472;28;19914;-78
2023/05/04 15:27:44;;;;;;;;;;;;;;;;;;4992723;28;19953;-78
2023/05/04 15:30:10;;;;;;;;;;;;;;;;;;4975117;28;19921;-79
2023/05/04 15:32:36;;;;;;;;;;;;;;;;;;4991326;28;19913;-78
2023/05/04 15:35:02;;;;;;;;;;;;;;;;;;4992478;28;19914;-78
2023/05/04 15:37:27;;;;;;;;;;;;;;;;;;4980231;28;19925;-79
2023/05/04 15:39:53;;;;;;;;;;;;;;;;;;4990835;28;19921;-79
2023/05/04 15:42:18;;;;;;;;;;;;;;;;;;4994163;28;20427;-78
2023/05/04 15:44:44;;;;;;;;;;;;;;;;;;4994099;28;19922;-78
2023/05/04 15:47:11;;;;;;;;;;;;;;;;;;4993210;28;19921;-80
2023/05/04 15:49:36;;;;;;;;;;;;;;;;;;4992330;28;19914;-79
2023/05/04 15:52:04;;;;;;;;;;;;;;;;;;4991266;28;19914;-78
2023/05/04 15:54:29;;;;;;;;;;;;;;;;;;4992021;28;19914;-78
2023/05/04 15:56:55;;;;;;;;;;;;;;;;;;4992598;28;19921;-78
2023/05/04 15:59:20;;;;;;;;;;;;;;;;;;4992169;28;19930;-79
2023/05/04 16:01:45;;;;;;;;;;;;;;;;;;4991817;28;19943;-80
2023/05/04 16:04:11;;;;;;;;;;;;;;;;;;4993610;28;19925;-79
2023/05/04 16:06:37;;;;;;;;;;;;;;;;;;4992701;28;20379;-77
2023/05/04 16:09:06;;;;;;;;;;;;;;;;;;4991340;28;19920;-78
2023/05/04 16:11:32;;;;;;;;;;;;;;;;;;4991521;28;19918;-78
2023/05/04 16:13:58;;;;;;;;;;;;;;;;;;4993488;28;19956;-79
2023/05/04 16:16:24;;;;;;;;;;;;;;;;;;4993476;28;19932;-79
2023/05/04 16:18:49;;;;;;;;;;;;;;;;;;4975547;28;20329;-79
2023/05/04 16:21:15;;;;;;;;;;;;;;;;;;4995430;28;19918;-79
2023/05/04 16:23:40;;;;;;;;;;;;;;;;;;4994531;28;20288;-79
2023/05/04 16:26:06;;;;;;;;;;;;;;;;;;4995794;28;19961;-80
2023/05/04 16:28:31;;;;;;;;;;;;;;;;;;4994328;28;19914;-79
2023/05/04 16:30:56;;;;;;;;;;;;;;;;;;4995210;28;20008;-78
2023/05/04 16:33:23;;;;;;;;;;;;;;;;;;4958285;28;20333;-78
2023/05/04 16:35:49;;;;;;;;;;;;;;;;;;4982901;28;20417;-79